sensor_id;sensor_type;location;lat;lon;timestamp;temperature;humidity
52575;DHT22;38468;48.114;-1.684;2023-04-03T00:01:36;7.70;71.90
52575;DHT22;38468;48.114;-1.684;2023-04-03T00:03:38;7.70;72.00
52575;DHT22;38468;48.114;-1.684;2023-04-03T00:05:39;7.70;72.10
52575;DHT22;38468;48.114;-1.684;2023-04-03T00:07:39;7.70;72.20
52575;DHT22;38468;48.114;-1.684;2023-04-03T00:09:40;7.70;72.20
52575;DHT22;38468;48.114;-1.684;2023-04-03T00:11:41;7.60;72.20
52575;DHT22;38468;48.114;-1.684;2023-04-03T00:13:42;7.60;72.10
52575;DHT22;38468;48.114;-1.684;2023-04-03T00:15:43;7.60;72.20
52575;DHT22;38468;48.114;-1.684;2023-04-03T00:17:44;7.50;72.40
52575;DHT22;38468;48.114;-1.684;2023-04-03T00:19:44;7.60;72.30
52575;DHT22;38468;48.114;-1.684;2023-04-03T00:21:45;7.50;72.50
52575;DHT22;38468;48.114;-1.684;2023-04-03T00:23:46;7.50;72.60
52575;DHT22;38468;48.114;-1.684;2023-04-03T00:25:47;7.50;72.50
52575;DHT22;38468;48.114;-1.684;2023-04-03T00:27:47;7.40;72.50
52575;DHT22;38468;48.114;-1.684;2023-04-03T00:29:48;7.40;72.80
52575;DHT22;38468;48.114;-1.684;2023-04-03T00:31:49;7.40;72.90
52575;DHT22;38468;48.114;-1.684;2023-04-03T00:33:49;7.40;73.20
52575;DHT22;38468;48.114;-1.684;2023-04-03T00:35:51;7.40;73.20
52575;DHT22;38468;48.114;-1.684;2023-04-03T00:37:52;7.30;73.40
52575;DHT22;38468;48.114;-1.684;2023-04-03T00:39:53;7.20;73.30
52575;DHT22;38468;48.114;-1.684;2023-04-03T00:41:54;7.30;73.30
52575;DHT22;38468;48.114;-1.684;2023-04-03T00:43:54;7.30;73.40
52575;DHT22;38468;48.114;-1.684;2023-04-03T00:45:57;7.30;73.20
52575;DHT22;38468;48.114;-1.684;2023-04-03T00:47:58;7.30;73.00
52575;DHT22;38468;48.114;-1.684;2023-04-03T00:50:00;7.20;73.10
52575;DHT22;38468;48.114;-1.684;2023-04-03T00:52:03;7.20;73.10
52575;DHT22;38468;48.114;-1.684;2023-04-03T00:54:06;7.20;73.20
52575;DHT22;38468;48.114;-1.684;2023-04-03T00:56:11;7.10;73.20
52575;DHT22;38468;48.114;-1.684;2023-04-03T00:58:14;7.10;73.20
52575;DHT22;38468;48.114;-1.684;2023-04-03T01:00:19;7.10;73.30
52575;DHT22;38468;48.114;-1.684;2023-04-03T01:02:20;7.10;73.60
52575;DHT22;38468;48.114;-1.684;2023-04-03T01:04:34;7.10;73.60
52575;DHT22;38468;48.114;-1.684;2023-04-03T01:06:37;7.10;73.50
52575;DHT22;38468;48.114;-1.684;2023-04-03T01:08:38;7.10;73.40
52575;DHT22;38468;48.114;-1.684;2023-04-03T01:10:39;7.00;73.30
52575;DHT22;38468;48.114;-1.684;2023-04-03T01:12:42;7.00;73.40
52575;DHT22;38468;48.114;-1.684;2023-04-03T01:14:49;7.00;73.40
52575;DHT22;38468;48.114;-1.684;2023-04-03T01:16:53;7.00;73.60
52575;DHT22;38468;48.114;-1.684;2023-04-03T01:18:54;7.00;73.30
52575;DHT22;38468;48.114;-1.684;2023-04-03T01:25:10;6.90;73.50
52575;DHT22;38468;48.114;-1.684;2023-04-03T01:27:11;6.90;73.60
52575;DHT22;38468;48.114;-1.684;2023-04-03T01:29:12;6.90;73.50
52575;DHT22;38468;48.114;-1.684;2023-04-03T01:33:16;6.90;73.70
52575;DHT22;38468;48.114;-1.684;2023-04-03T01:35:17;6.90;73.70
52575;DHT22;38468;48.114;-1.684;2023-04-03T01:37:17;6.80;73.80
52575;DHT22;38468;48.114;-1.684;2023-04-03T01:39:18;6.80;73.90
52575;DHT22;38468;48.114;-1.684;2023-04-03T01:41:19;6.80;74.10
52575;DHT22;38468;48.114;-1.684;2023-04-03T01:43:21;6.70;74.10
52575;DHT22;38468;48.114;-1.684;2023-04-03T01:45:22;6.70;74.20
52575;DHT22;38468;48.114;-1.684;2023-04-03T01:47:22;6.70;74.30
52575;DHT22;38468;48.114;-1.684;2023-04-03T01:49:23;6.70;74.20
52575;DHT22;38468;48.114;-1.684;2023-04-03T01:51:24;6.70;74.10
52575;DHT22;38468;48.114;-1.684;2023-04-03T01:53:24;6.70;74.20
52575;DHT22;38468;48.114;-1.684;2023-04-03T01:55:25;6.70;74.20
52575;DHT22;38468;48.114;-1.684;2023-04-03T01:57:26;6.60;74.30
52575;DHT22;38468;48.114;-1.684;2023-04-03T01:59:26;6.60;74.30
52575;DHT22;38468;48.114;-1.684;2023-04-03T02:01:28;6.70;74.10
52575;DHT22;38468;48.114;-1.684;2023-04-03T02:03:29;6.60;74.30
52575;DHT22;38468;48.114;-1.684;2023-04-03T02:05:30;6.70;74.10
52575;DHT22;38468;48.114;-1.684;2023-04-03T02:07:30;6.60;74.30
52575;DHT22;38468;48.114;-1.684;2023-04-03T02:09:31;6.60;74.30
52575;DHT22;38468;48.114;-1.684;2023-04-03T02:11:31;6.60;74.40
52575;DHT22;38468;48.114;-1.684;2023-04-03T02:13:32;6.60;74.70
52575;DHT22;38468;48.114;-1.684;2023-04-03T02:15:33;6.60;74.70
52575;DHT22;38468;48.114;-1.684;2023-04-03T02:17:34;6.50;74.70
52575;DHT22;38468;48.114;-1.684;2023-04-03T02:19:35;6.50;74.70
52575;DHT22;38468;48.114;-1.684;2023-04-03T02:21:36;6.60;74.60
52575;DHT22;38468;48.114;-1.684;2023-04-03T02:23:37;6.60;74.50
52575;DHT22;38468;48.114;-1.684;2023-04-03T02:25:37;6.60;74.40
52575;DHT22;38468;48.114;-1.684;2023-04-03T02:27:38;6.50;74.50
52575;DHT22;38468;48.114;-1.684;2023-04-03T02:29:39;6.50;74.40
52575;DHT22;38468;48.114;-1.684;2023-04-03T02:31:39;6.50;74.50
52575;DHT22;38468;48.114;-1.684;2023-04-03T02:33:40;6.40;74.50
52575;DHT22;38468;48.114;-1.684;2023-04-03T02:35:41;6.40;74.60
52575;DHT22;38468;48.114;-1.684;2023-04-03T02:37:42;6.40;74.60
52575;DHT22;38468;48.114;-1.684;2023-04-03T02:39:42;6.40;74.30
52575;DHT22;38468;48.114;-1.684;2023-04-03T02:41:43;6.40;74.40
52575;DHT22;38468;48.114;-1.684;2023-04-03T02:43:44;6.40;74.50
52575;DHT22;38468;48.114;-1.684;2023-04-03T02:45:44;6.40;74.30
52575;DHT22;38468;48.114;-1.684;2023-04-03T02:47:45;6.40;74.40
52575;DHT22;38468;48.114;-1.684;2023-04-03T02:49:45;6.40;74.50
52575;DHT22;38468;48.114;-1.684;2023-04-03T02:51:46;6.40;74.60
52575;DHT22;38468;48.114;-1.684;2023-04-03T02:53:47;6.40;74.50
52575;DHT22;38468;48.114;-1.684;2023-04-03T02:55:48;6.40;74.40
52575;DHT22;38468;48.114;-1.684;2023-04-03T02:57:49;6.40;74.50
52575;DHT22;38468;48.114;-1.684;2023-04-03T02:59:50;6.30;74.60
52575;DHT22;38468;48.114;-1.684;2023-04-03T03:01:50;6.30;74.50
52575;DHT22;38468;48.114;-1.684;2023-04-03T03:03:51;6.30;74.40
52575;DHT22;38468;48.114;-1.684;2023-04-03T03:06:04;6.30;74.40
52575;DHT22;38468;48.114;-1.684;2023-04-03T03:08:05;6.30;74.40
52575;DHT22;38468;48.114;-1.684;2023-04-03T03:10:06;6.30;74.50
52575;DHT22;38468;48.114;-1.684;2023-04-03T03:12:07;6.30;74.50
52575;DHT22;38468;48.114;-1.684;2023-04-03T03:14:07;6.30;74.50
52575;DHT22;38468;48.114;-1.684;2023-04-03T03:16:08;6.30;74.40
52575;DHT22;38468;48.114;-1.684;2023-04-03T03:18:09;6.20;74.40
52575;DHT22;38468;48.114;-1.684;2023-04-03T03:20:10;6.30;74.40
52575;DHT22;38468;48.114;-1.684;2023-04-03T03:22:11;6.20;74.40
52575;DHT22;38468;48.114;-1.684;2023-04-03T03:24:12;6.20;74.50
52575;DHT22;38468;48.114;-1.684;2023-04-03T03:26:13;6.20;74.50
52575;DHT22;38468;48.114;-1.684;2023-04-03T03:28:14;6.20;74.40
52575;DHT22;38468;48.114;-1.684;2023-04-03T03:30:15;6.20;74.50
52575;DHT22;38468;48.114;-1.684;2023-04-03T03:32:15;6.20;74.40
52575;DHT22;38468;48.114;-1.684;2023-04-03T03:34:16;6.20;74.50
52575;DHT22;38468;48.114;-1.684;2023-04-03T03:36:17;6.10;74.50
52575;DHT22;38468;48.114;-1.684;2023-04-03T03:38:18;6.00;74.50
52575;DHT22;38468;48.114;-1.684;2023-04-03T03:40:18;6.00;74.50
52575;DHT22;38468;48.114;-1.684;2023-04-03T03:42:19;6.00;74.50
52575;DHT22;38468;48.114;-1.684;2023-04-03T03:44:20;6.00;74.40
52575;DHT22;38468;48.114;-1.684;2023-04-03T03:46:21;6.00;74.00
52575;DHT22;38468;48.114;-1.684;2023-04-03T03:48:23;5.90;74.00
52575;DHT22;38468;48.114;-1.684;2023-04-03T03:50:24;5.90;74.00
52575;DHT22;38468;48.114;-1.684;2023-04-03T03:52:25;5.90;74.00
52575;DHT22;38468;48.114;-1.684;2023-04-03T03:54:26;5.90;73.90
52575;DHT22;38468;48.114;-1.684;2023-04-03T03:56:27;5.90;73.80
52575;DHT22;38468;48.114;-1.684;2023-04-03T03:58:27;5.90;73.80
52575;DHT22;38468;48.114;-1.684;2023-04-03T04:00:28;5.80;73.70
52575;DHT22;38468;48.114;-1.684;2023-04-03T04:02:29;5.80;73.60
52575;DHT22;38468;48.114;-1.684;2023-04-03T04:04:29;5.80;73.40
52575;DHT22;38468;48.114;-1.684;2023-04-03T04:06:30;5.80;73.20
52575;DHT22;38468;48.114;-1.684;2023-04-03T04:08:31;5.70;73.00
52575;DHT22;38468;48.114;-1.684;2023-04-03T04:10:31;5.70;73.00
52575;DHT22;38468;48.114;-1.684;2023-04-03T04:12:32;5.60;73.00
52575;DHT22;38468;48.114;-1.684;2023-04-03T04:14:32;5.60;72.90
52575;DHT22;38468;48.114;-1.684;2023-04-03T04:16:33;5.60;72.90
52575;DHT22;38468;48.114;-1.684;2023-04-03T04:18:34;5.60;73.10
52575;DHT22;38468;48.114;-1.684;2023-04-03T04:20:35;5.60;73.10
52575;DHT22;38468;48.114;-1.684;2023-04-03T04:22:35;5.50;73.10
52575;DHT22;38468;48.114;-1.684;2023-04-03T04:24:36;5.60;73.10
52575;DHT22;38468;48.114;-1.684;2023-04-03T04:26:37;5.50;73.10
52575;DHT22;38468;48.114;-1.684;2023-04-03T04:28:37;5.50;73.10
52575;DHT22;38468;48.114;-1.684;2023-04-03T04:30:38;5.50;72.90
52575;DHT22;38468;48.114;-1.684;2023-04-03T04:32:38;5.50;72.90
52575;DHT22;38468;48.114;-1.684;2023-04-03T04:34:39;5.50;72.90
52575;DHT22;38468;48.114;-1.684;2023-04-03T04:36:40;5.50;73.00
52575;DHT22;38468;48.114;-1.684;2023-04-03T04:38:41;5.60;72.90
52575;DHT22;38468;48.114;-1.684;2023-04-03T04:40:41;5.50;72.80
52575;DHT22;38468;48.114;-1.684;2023-04-03T04:42:43;5.60;72.90
52575;DHT22;38468;48.114;-1.684;2023-04-03T04:44:43;5.60;72.70
52575;DHT22;38468;48.114;-1.684;2023-04-03T04:46:44;5.60;72.70
52575;DHT22;38468;48.114;-1.684;2023-04-03T04:48:45;5.50;72.70
52575;DHT22;38468;48.114;-1.684;2023-04-03T04:50:46;5.40;72.50
52575;DHT22;38468;48.114;-1.684;2023-04-03T04:52:47;5.40;72.40
52575;DHT22;38468;48.114;-1.684;2023-04-03T04:54:47;5.50;72.40
52575;DHT22;38468;48.114;-1.684;2023-04-03T04:56:48;5.40;72.30
52575;DHT22;38468;48.114;-1.684;2023-04-03T04:58:49;5.50;72.30
52575;DHT22;38468;48.114;-1.684;2023-04-03T05:00:49;5.40;72.10
52575;DHT22;38468;48.114;-1.684;2023-04-03T05:02:50;5.40;71.90
52575;DHT22;38468;48.114;-1.684;2023-04-03T05:04:51;5.40;71.70
52575;DHT22;38468;48.114;-1.684;2023-04-03T05:06:52;5.40;71.90
52575;DHT22;38468;48.114;-1.684;2023-04-03T05:08:53;5.40;71.70
52575;DHT22;38468;48.114;-1.684;2023-04-03T05:10:53;5.40;71.90
52575;DHT22;38468;48.114;-1.684;2023-04-03T05:12:54;5.40;72.00
52575;DHT22;38468;48.114;-1.684;2023-04-03T05:14:55;5.40;71.80
52575;DHT22;38468;48.114;-1.684;2023-04-03T05:16:55;5.40;71.60
52575;DHT22;38468;48.114;-1.684;2023-04-03T05:18:56;5.40;71.50
52575;DHT22;38468;48.114;-1.684;2023-04-03T05:20:57;5.40;71.60
52575;DHT22;38468;48.114;-1.684;2023-04-03T05:22:59;5.40;71.60
52575;DHT22;38468;48.114;-1.684;2023-04-03T05:25:00;5.40;71.50
52575;DHT22;38468;48.114;-1.684;2023-04-03T05:27:00;5.40;71.30
52575;DHT22;38468;48.114;-1.684;2023-04-03T05:29:01;5.40;71.40
52575;DHT22;38468;48.114;-1.684;2023-04-03T05:31:02;5.40;71.30
52575;DHT22;38468;48.114;-1.684;2023-04-03T05:33:03;5.40;71.40
52575;DHT22;38468;48.114;-1.684;2023-04-03T05:35:04;5.40;71.40
52575;DHT22;38468;48.114;-1.684;2023-04-03T05:37:06;5.40;71.20
52575;DHT22;38468;48.114;-1.684;2023-04-03T05:39:07;5.40;71.20
52575;DHT22;38468;48.114;-1.684;2023-04-03T05:41:07;5.30;71.10
52575;DHT22;38468;48.114;-1.684;2023-04-03T05:43:08;5.40;71.10
52575;DHT22;38468;48.114;-1.684;2023-04-03T05:45:10;5.30;71.10
52575;DHT22;38468;48.114;-1.684;2023-04-03T05:47:10;5.40;71.10
52575;DHT22;38468;48.114;-1.684;2023-04-03T05:49:11;5.30;70.90
52575;DHT22;38468;48.114;-1.684;2023-04-03T05:51:22;5.30;70.90
52575;DHT22;38468;48.114;-1.684;2023-04-03T05:53:28;5.30;70.70
52575;DHT22;38468;48.114;-1.684;2023-04-03T05:55:29;5.30;70.80
52575;DHT22;38468;48.114;-1.684;2023-04-03T05:57:30;5.30;70.50
52575;DHT22;38468;48.114;-1.684;2023-04-03T05:59:31;5.40;70.40
52575;DHT22;38468;48.114;-1.684;2023-04-03T06:01:32;5.40;70.40
52575;DHT22;38468;48.114;-1.684;2023-04-03T06:03:32;5.40;70.30
52575;DHT22;38468;48.114;-1.684;2023-04-03T06:05:33;5.40;70.20
52575;DHT22;38468;48.114;-1.684;2023-04-03T06:07:34;5.40;70.30
52575;DHT22;38468;48.114;-1.684;2023-04-03T06:09:35;5.40;70.30
52575;DHT22;38468;48.114;-1.684;2023-04-03T06:11:35;5.40;70.40
52575;DHT22;38468;48.114;-1.684;2023-04-03T06:13:36;5.50;70.30
52575;DHT22;38468;48.114;-1.684;2023-04-03T06:15:37;5.40;70.40
52575;DHT22;38468;48.114;-1.684;2023-04-03T06:17:38;5.50;70.00
52575;DHT22;38468;48.114;-1.684;2023-04-03T06:19:39;5.40;69.80
52575;DHT22;38468;48.114;-1.684;2023-04-03T06:21:40;5.50;70.10
52575;DHT22;38468;48.114;-1.684;2023-04-03T06:23:41;5.50;70.20
52575;DHT22;38468;48.114;-1.684;2023-04-03T06:25:42;5.60;70.10
52575;DHT22;38468;48.114;-1.684;2023-04-03T06:27:42;5.60;69.60
52575;DHT22;38468;48.114;-1.684;2023-04-03T06:29:43;5.70;69.80
52575;DHT22;38468;48.114;-1.684;2023-04-03T06:31:45;5.60;69.20
52575;DHT22;38468;48.114;-1.684;2023-04-03T06:33:46;5.60;69.00
52575;DHT22;38468;48.114;-1.684;2023-04-03T06:35:47;5.60;68.90
52575;DHT22;38468;48.114;-1.684;2023-04-03T06:37:47;5.60;67.80
52575;DHT22;38468;48.114;-1.684;2023-04-03T06:39:48;5.70;68.20
52575;DHT22;38468;48.114;-1.684;2023-04-03T06:41:50;5.70;68.20
52575;DHT22;38468;48.114;-1.684;2023-04-03T06:43:51;5.70;68.50
52575;DHT22;38468;48.114;-1.684;2023-04-03T06:45:51;5.70;68.50
52575;DHT22;38468;48.114;-1.684;2023-04-03T06:47:52;5.80;68.60
52575;DHT22;38468;48.114;-1.684;2023-04-03T06:49:53;5.80;68.10
52575;DHT22;38468;48.114;-1.684;2023-04-03T06:51:54;5.80;68.20
52575;DHT22;38468;48.114;-1.684;2023-04-03T06:53:56;5.90;68.30
52575;DHT22;38468;48.114;-1.684;2023-04-03T06:55:57;5.90;68.20
52575;DHT22;38468;48.114;-1.684;2023-04-03T06:57:57;5.90;67.90
52575;DHT22;38468;48.114;-1.684;2023-04-03T06:59:58;5.90;67.50
52575;DHT22;38468;48.114;-1.684;2023-04-03T07:01:59;5.90;67.70
52575;DHT22;38468;48.114;-1.684;2023-04-03T07:04:00;5.90;67.70
52575;DHT22;38468;48.114;-1.684;2023-04-03T07:06:01;5.90;67.70
52575;DHT22;38468;48.114;-1.684;2023-04-03T07:08:01;5.90;67.80
52575;DHT22;38468;48.114;-1.684;2023-04-03T07:10:02;5.90;67.90
52575;DHT22;38468;48.114;-1.684;2023-04-03T07:12:03;5.90;67.50
52575;DHT22;38468;48.114;-1.684;2023-04-03T07:14:04;5.90;67.00
52575;DHT22;38468;48.114;-1.684;2023-04-03T07:16:05;5.90;67.20
52575;DHT22;38468;48.114;-1.684;2023-04-03T07:18:06;5.90;67.60
52575;DHT22;38468;48.114;-1.684;2023-04-03T07:20:08;6.00;67.30
52575;DHT22;38468;48.114;-1.684;2023-04-03T07:22:09;6.10;67.20
52575;DHT22;38468;48.114;-1.684;2023-04-03T07:24:11;6.10;67.30
52575;DHT22;38468;48.114;-1.684;2023-04-03T07:26:12;6.10;67.20
52575;DHT22;38468;48.114;-1.684;2023-04-03T07:28:13;6.10;67.10
52575;DHT22;38468;48.114;-1.684;2023-04-03T07:30:14;6.10;66.70
52575;DHT22;38468;48.114;-1.684;2023-04-03T07:32:15;6.10;66.80
52575;DHT22;38468;48.114;-1.684;2023-04-03T07:34:15;6.10;66.80
52575;DHT22;38468;48.114;-1.684;2023-04-03T07:36:19;6.20;67.00
52575;DHT22;38468;48.114;-1.684;2023-04-03T07:38:20;6.20;66.50
52575;DHT22;38468;48.114;-1.684;2023-04-03T07:40:20;6.20;66.50
52575;DHT22;38468;48.114;-1.684;2023-04-03T07:42:21;6.20;66.50
52575;DHT22;38468;48.114;-1.684;2023-04-03T07:44:23;6.30;66.70
52575;DHT22;38468;48.114;-1.684;2023-04-03T07:46:24;6.20;66.60
52575;DHT22;38468;48.114;-1.684;2023-04-03T07:48:25;6.20;66.00
52575;DHT22;38468;48.114;-1.684;2023-04-03T07:50:26;6.10;65.50
52575;DHT22;38468;48.114;-1.684;2023-04-03T07:52:27;6.20;66.40
52575;DHT22;38468;48.114;-1.684;2023-04-03T07:54:28;6.20;66.30
52575;DHT22;38468;48.114;-1.684;2023-04-03T07:56:29;6.20;66.00
52575;DHT22;38468;48.114;-1.684;2023-04-03T07:58:30;6.30;66.20
52575;DHT22;38468;48.114;-1.684;2023-04-03T08:00:30;6.30;65.80
52575;DHT22;38468;48.114;-1.684;2023-04-03T08:02:31;6.30;65.50
52575;DHT22;38468;48.114;-1.684;2023-04-03T08:04:35;6.30;65.60
52575;DHT22;38468;48.114;-1.684;2023-04-03T08:06:35;6.40;65.90
52575;DHT22;38468;48.114;-1.684;2023-04-03T08:08:36;6.40;65.20
52575;DHT22;38468;48.114;-1.684;2023-04-03T08:10:37;6.30;65.50
52575;DHT22;38468;48.114;-1.684;2023-04-03T08:12:38;6.30;65.60
52575;DHT22;38468;48.114;-1.684;2023-04-03T08:14:39;6.30;65.70
52575;DHT22;38468;48.114;-1.684;2023-04-03T08:16:40;6.40;65.50
52575;DHT22;38468;48.114;-1.684;2023-04-03T08:18:40;6.40;65.70
52575;DHT22;38468;48.114;-1.684;2023-04-03T08:20:41;6.50;65.40
52575;DHT22;38468;48.114;-1.684;2023-04-03T08:22:42;6.40;65.20
52575;DHT22;38468;48.114;-1.684;2023-04-03T08:24:43;6.50;65.60
52575;DHT22;38468;48.114;-1.684;2023-04-03T08:26:44;6.60;65.80
52575;DHT22;38468;48.114;-1.684;2023-04-03T08:28:44;6.70;65.90
52575;DHT22;38468;48.114;-1.684;2023-04-03T08:30:45;6.60;65.80
52575;DHT22;38468;48.114;-1.684;2023-04-03T08:32:46;6.70;65.60
52575;DHT22;38468;48.114;-1.684;2023-04-03T08:34:47;6.80;65.80
52575;DHT22;38468;48.114;-1.684;2023-04-03T08:36:47;6.80;65.80
52575;DHT22;38468;48.114;-1.684;2023-04-03T08:38:49;6.80;65.40
52575;DHT22;38468;48.114;-1.684;2023-04-03T08:43:15;6.90;65.40
52575;DHT22;38468;48.114;-1.684;2023-04-03T08:47:45;6.80;65.40
52575;DHT22;38468;48.114;-1.684;2023-04-03T08:51:52;6.80;65.40
52575;DHT22;38468;48.114;-1.684;2023-04-03T08:54:04;6.70;65.10
52575;DHT22;38468;48.114;-1.684;2023-04-03T08:56:08;6.60;65.70
52575;DHT22;38468;48.114;-1.684;2023-04-03T08:58:16;6.50;66.10
52575;DHT22;38468;48.114;-1.684;2023-04-03T09:00:20;6.60;66.40
52575;DHT22;38468;48.114;-1.684;2023-04-03T09:02:27;6.70;66.20
52575;DHT22;38468;48.114;-1.684;2023-04-03T09:04:31;6.80;66.10
52575;DHT22;38468;48.114;-1.684;2023-04-03T09:06:33;6.80;66.10
52575;DHT22;38468;48.114;-1.684;2023-04-03T09:13:54;6.80;66.00
52575;DHT22;38468;48.114;-1.684;2023-04-03T09:15:58;6.90;66.50
52575;DHT22;38468;48.114;-1.684;2023-04-03T09:21:14;6.90;66.20
52575;DHT22;38468;48.114;-1.684;2023-04-03T09:23:30;6.90;66.50
52575;DHT22;38468;48.114;-1.684;2023-04-03T09:25:35;7.00;66.70
52575;DHT22;38468;48.114;-1.684;2023-04-03T09:27:37;7.00;66.50
52575;DHT22;38468;48.114;-1.684;2023-04-03T09:29:40;7.00;66.50
52575;DHT22;38468;48.114;-1.684;2023-04-03T09:31:49;6.90;66.50
52575;DHT22;38468;48.114;-1.684;2023-04-03T09:33:54;6.90;66.60
52575;DHT22;38468;48.114;-1.684;2023-04-03T09:35:55;7.00;66.70
52575;DHT22;38468;48.114;-1.684;2023-04-03T09:38:21;7.10;66.80
52575;DHT22;38468;48.114;-1.684;2023-04-03T09:42:30;7.10;66.50
52575;DHT22;38468;48.114;-1.684;2023-04-03T09:44:36;7.20;66.60
52575;DHT22;38468;48.114;-1.684;2023-04-03T09:46:37;7.20;66.60
52575;DHT22;38468;48.114;-1.684;2023-04-03T09:48:39;7.20;66.60
52575;DHT22;38468;48.114;-1.684;2023-04-03T09:52:51;7.20;66.20
52575;DHT22;38468;48.114;-1.684;2023-04-03T09:54:52;7.20;66.30
52575;DHT22;38468;48.114;-1.684;2023-04-03T09:56:54;7.30;66.40
52575;DHT22;38468;48.114;-1.684;2023-04-03T10:01:00;7.30;66.50
52575;DHT22;38468;48.114;-1.684;2023-04-03T10:03:01;7.30;66.30
52575;DHT22;38468;48.114;-1.684;2023-04-03T10:05:04;7.30;66.30
52575;DHT22;38468;48.114;-1.684;2023-04-03T10:07:26;7.30;66.20
52575;DHT22;38468;48.114;-1.684;2023-04-03T10:09:31;7.30;66.30
52575;DHT22;38468;48.114;-1.684;2023-04-03T10:11:33;7.40;66.30
52575;DHT22;38468;48.114;-1.684;2023-04-03T10:13:34;7.40;66.20
52575;DHT22;38468;48.114;-1.684;2023-04-03T10:15:42;7.40;66.40
52575;DHT22;38468;48.114;-1.684;2023-04-03T10:23:00;7.50;66.10
52575;DHT22;38468;48.114;-1.684;2023-04-03T10:27:31;7.60;65.70
52575;DHT22;38468;48.114;-1.684;2023-04-03T10:29:59;7.50;65.50
52575;DHT22;38468;48.114;-1.684;2023-04-03T10:34:36;7.50;65.60
52575;DHT22;38468;48.114;-1.684;2023-04-03T10:37:14;7.30;65.30
52575;DHT22;38468;48.114;-1.684;2023-04-03T10:42:02;7.50;65.70
52575;DHT22;38468;48.114;-1.684;2023-04-03T10:46:49;7.40;65.30
52575;DHT22;38468;48.114;-1.684;2023-04-03T10:57:50;7.70;64.90
52575;DHT22;38468;48.114;-1.684;2023-04-03T10:59:55;7.80;65.30
52575;DHT22;38468;48.114;-1.684;2023-04-03T11:02:00;8.00;65.50
52575;DHT22;38468;48.114;-1.684;2023-04-03T11:04:04;8.20;64.70
52575;DHT22;38468;48.114;-1.684;2023-04-03T11:06:09;8.20;64.30
52575;DHT22;38468;48.114;-1.684;2023-04-03T11:08:48;8.30;63.80
52575;DHT22;38468;48.114;-1.684;2023-04-03T11:10:55;8.10;61.90
52575;DHT22;38468;48.114;-1.684;2023-04-03T11:13:40;8.00;62.80
52575;DHT22;38468;48.114;-1.684;2023-04-03T11:15:43;8.40;63.50
52575;DHT22;38468;48.114;-1.684;2023-04-03T11:17:54;8.60;63.10
52575;DHT22;38468;48.114;-1.684;2023-04-03T11:20:17;8.90;62.40
52575;DHT22;38468;48.114;-1.684;2023-04-03T11:22:34;9.10;62.70
52575;DHT22;38468;48.114;-1.684;2023-04-03T11:24:38;9.20;62.10
52575;DHT22;38468;48.114;-1.684;2023-04-03T11:26:41;9.40;62.00
52575;DHT22;38468;48.114;-1.684;2023-04-03T11:28:42;9.60;61.90
52575;DHT22;38468;48.114;-1.684;2023-04-03T11:35:29;9.80;59.80
52575;DHT22;38468;48.114;-1.684;2023-04-03T11:37:48;9.80;59.40
52575;DHT22;38468;48.114;-1.684;2023-04-03T11:40:00;9.80;59.30
52575;DHT22;38468;48.114;-1.684;2023-04-03T11:42:22;9.80;57.80
52575;DHT22;38468;48.114;-1.684;2023-04-03T11:47:07;9.90;58.40
52575;DHT22;38468;48.114;-1.684;2023-04-03T11:51:47;9.70;57.00
52575;DHT22;38468;48.114;-1.684;2023-04-03T11:53:48;9.50;58.00
52575;DHT22;38468;48.114;-1.684;2023-04-03T11:59:59;10.10;58.70
52575;DHT22;38468;48.114;-1.684;2023-04-03T12:01:59;10.10;57.00
52575;DHT22;38468;48.114;-1.684;2023-04-03T12:04:07;10.20;58.80
52575;DHT22;38468;48.114;-1.684;2023-04-03T12:10:40;10.20;57.80
52575;DHT22;38468;48.114;-1.684;2023-04-03T12:12:41;10.20;56.80
52575;DHT22;38468;48.114;-1.684;2023-04-03T12:14:43;10.30;58.80
52575;DHT22;38468;48.114;-1.684;2023-04-03T12:16:47;10.40;58.50
52575;DHT22;38468;48.114;-1.684;2023-04-03T12:26:19;10.90;57.50
52575;DHT22;38468;48.114;-1.684;2023-04-03T12:28:24;10.90;56.80
52575;DHT22;38468;48.114;-1.684;2023-04-03T12:30:25;10.90;56.60
52575;DHT22;38468;48.114;-1.684;2023-04-03T12:34:55;11.10;57.00
52575;DHT22;38468;48.114;-1.684;2023-04-03T12:37:15;11.00;56.20
52575;DHT22;38468;48.114;-1.684;2023-04-03T12:42:10;11.00;56.70
52575;DHT22;38468;48.114;-1.684;2023-04-03T12:44:34;11.00;55.90
52575;DHT22;38468;48.114;-1.684;2023-04-03T12:46:48;10.90;56.50
52575;DHT22;38468;48.114;-1.684;2023-04-03T12:48:52;11.00;56.30
52575;DHT22;38468;48.114;-1.684;2023-04-03T12:50:54;11.10;56.50
52575;DHT22;38468;48.114;-1.684;2023-04-03T12:53:04;10.90;56.30
52575;DHT22;38468;48.114;-1.684;2023-04-03T12:55:18;11.00;57.20
52575;DHT22;38468;48.114;-1.684;2023-04-03T12:57:21;11.20;55.50
52575;DHT22;38468;48.114;-1.684;2023-04-03T12:59:25;11.30;57.50
52575;DHT22;38468;48.114;-1.684;2023-04-03T13:01:26;11.30;56.00
52575;DHT22;38468;48.114;-1.684;2023-04-03T13:03:27;11.30;56.30
52575;DHT22;38468;48.114;-1.684;2023-04-03T13:05:30;11.30;57.30
52575;DHT22;38468;48.114;-1.684;2023-04-03T13:07:32;11.50;57.40
52575;DHT22;38468;48.114;-1.684;2023-04-03T13:09:33;11.50;55.80
52575;DHT22;38468;48.114;-1.684;2023-04-03T13:11:37;11.50;56.00
52575;DHT22;38468;48.114;-1.684;2023-04-03T13:13:38;11.70;57.00
52575;DHT22;38468;48.114;-1.684;2023-04-03T13:15:42;11.80;55.90
52575;DHT22;38468;48.114;-1.684;2023-04-03T13:17:44;11.90;55.70
52575;DHT22;38468;48.114;-1.684;2023-04-03T13:19:45;11.90;55.10
52575;DHT22;38468;48.114;-1.684;2023-04-03T13:21:47;11.90;55.60
52575;DHT22;38468;48.114;-1.684;2023-04-03T13:23:51;12.00;55.90
52575;DHT22;38468;48.114;-1.684;2023-04-03T13:25:52;12.00;56.20
52575;DHT22;38468;48.114;-1.684;2023-04-03T13:27:53;11.90;55.30
52575;DHT22;38468;48.114;-1.684;2023-04-03T13:29:57;12.10;56.10
52575;DHT22;38468;48.114;-1.684;2023-04-03T13:31:59;12.10;55.00
52575;DHT22;38468;48.114;-1.684;2023-04-03T13:34:11;12.20;55.90
52575;DHT22;38468;48.114;-1.684;2023-04-03T13:36:21;12.20;54.80
52575;DHT22;38468;48.114;-1.684;2023-04-03T13:38:26;12.10;54.50
52575;DHT22;38468;48.114;-1.684;2023-04-03T13:40:27;12.00;55.00
52575;DHT22;38468;48.114;-1.684;2023-04-03T13:42:31;12.10;55.00
52575;DHT22;38468;48.114;-1.684;2023-04-03T13:44:35;12.00;53.30
52575;DHT22;38468;48.114;-1.684;2023-04-03T13:46:36;12.00;54.80
52575;DHT22;38468;48.114;-1.684;2023-04-03T13:48:43;12.20;55.50
52575;DHT22;38468;48.114;-1.684;2023-04-03T13:51:12;12.20;54.70
52575;DHT22;38468;48.114;-1.684;2023-04-03T13:53:17;12.20;54.90
52575;DHT22;38468;48.114;-1.684;2023-04-03T13:55:23;12.30;55.30
52575;DHT22;38468;48.114;-1.684;2023-04-03T13:57:25;12.30;55.30
52575;DHT22;38468;48.114;-1.684;2023-04-03T13:59:35;12.20;54.00
52575;DHT22;38468;48.114;-1.684;2023-04-03T14:04:10;12.10;55.10
52575;DHT22;38468;48.114;-1.684;2023-04-03T14:06:14;12.40;55.50
52575;DHT22;38468;48.114;-1.684;2023-04-03T14:08:16;12.30;53.70
52575;DHT22;38468;48.114;-1.684;2023-04-03T14:10:17;12.30;55.10
52575;DHT22;38468;48.114;-1.684;2023-04-03T14:12:24;12.20;54.10
52575;DHT22;38468;48.114;-1.684;2023-04-03T14:14:32;12.40;55.30
52575;DHT22;38468;48.114;-1.684;2023-04-03T14:16:38;12.40;54.80
52575;DHT22;38468;48.114;-1.684;2023-04-03T14:18:39;12.40;54.70
52575;DHT22;38468;48.114;-1.684;2023-04-03T14:20:40;12.50;54.20